createdAt,value
2019-03-17T00:01:57.672Z,1.40
2019-03-17T00:04:31.436Z,1.23
2019-03-17T00:06:56.674Z,0.97
2019-03-17T00:09:26.701Z,1.20
2019-03-17T00:11:56.192Z,1.10
2019-03-17T00:14:25.054Z,1.23
2019-03-17T00:16:54.786Z,1.00
2019-03-17T00:19:24.037Z,1.10
2019-03-17T00:21:53.034Z,1.30
2019-03-17T00:24:22.309Z,1.10
2019-03-17T00:26:51.484Z,1.43
2019-03-17T00:29:21.084Z,1.30
2019-03-17T00:31:50.694Z,0.93
2019-03-17T00:34:19.609Z,1.00
2019-03-17T00:36:48.489Z,1.00
2019-03-17T00:39:17.481Z,1.10
2019-03-17T00:41:46.766Z,1.10
2019-03-17T00:44:15.735Z,1.10
2019-03-17T00:46:44.654Z,0.87
2019-03-17T00:49:13.846Z,1.20
2019-03-17T00:51:42.778Z,1.00
2019-03-17T00:54:11.618Z,0.93
2019-03-17T00:56:40.548Z,0.80
2019-03-17T00:59:09.818Z,1.10
2019-03-17T01:01:38.763Z,0.80
2019-03-17T01:04:07.754Z,1.10
2019-03-17T01:06:37.037Z,0.97
2019-03-17T01:09:06.633Z,0.97
2019-03-17T01:11:35.960Z,1.30
2019-03-17T01:14:04.981Z,1.00
2019-03-17T01:16:33.915Z,1.10
2019-03-17T01:19:02.833Z,0.90
2019-03-17T01:21:31.757Z,0.90
2019-03-17T01:24:00.687Z,0.97
2019-03-17T01:26:29.933Z,0.93
2019-03-17T01:28:59.131Z,0.90
2019-03-17T01:31:27.974Z,1.03
2019-03-17T01:33:57.271Z,1.10
2019-03-17T01:36:26.182Z,0.90
2019-03-17T01:38:55.489Z,1.00
2019-03-17T01:41:24.437Z,1.00
2019-03-17T01:43:53.361Z,1.00
2019-03-17T01:46:22.538Z,1.00
2019-03-17T01:48:51.409Z,1.00
2019-03-17T01:51:20.257Z,1.00
2019-03-17T01:53:49.521Z,1.03
2019-03-17T01:56:18.430Z,1.10
2019-03-17T01:58:47.362Z,1.10
2019-03-17T02:01:16.706Z,1.13
2019-03-17T02:03:45.924Z,1.00
2019-03-17T02:06:14.772Z,0.90
2019-03-17T02:08:43.686Z,1.07
2019-03-17T02:11:12.522Z,1.17
2019-03-17T02:13:41.673Z,0.90
2019-03-17T02:16:10.621Z,1.20
2019-03-17T02:18:39.489Z,1.30
2019-03-17T02:21:08.406Z,1.30
2019-03-17T02:23:37.419Z,1.20
2019-03-17T02:26:06.319Z,1.20
2019-03-17T02:28:35.177Z,1.10
2019-03-17T02:31:04.097Z,1.27
2019-03-17T02:33:33.243Z,1.20
2019-03-17T02:36:02.246Z,1.33
2019-03-17T02:38:31.252Z,1.20
2019-03-17T02:41:00.104Z,1.20
2019-03-17T02:43:29.031Z,1.20
2019-03-17T02:46:02.621Z,1.30
2019-03-17T02:48:29.240Z,1.23
2019-03-17T02:50:58.173Z,1.10
2019-03-17T02:53:27.021Z,1.20
2019-03-17T02:55:56.013Z,1.20
2019-03-17T02:58:24.899Z,1.17
2019-03-17T03:00:54.056Z,1.40
2019-03-17T03:03:22.913Z,1.17
2019-03-17T03:05:55.398Z,1.60
2019-03-17T03:08:22.411Z,1.07
2019-03-17T03:10:51.258Z,1.30
2019-03-17T03:13:20.414Z,1.20
2019-03-17T03:15:49.396Z,1.30
2019-03-17T03:18:18.643Z,1.00
2019-03-17T03:20:48.007Z,1.27
2019-03-17T03:23:16.883Z,1.30
2019-03-17T03:25:46.140Z,1.40
2019-03-17T03:28:15.472Z,1.50
2019-03-17T03:30:44.743Z,1.20
2019-03-17T03:33:13.673Z,1.53
2019-03-17T03:35:42.608Z,1.30
2019-03-17T03:38:11.539Z,1.10
2019-03-17T03:40:40.750Z,1.40
2019-03-17T03:43:10.046Z,1.43
2019-03-17T03:45:38.993Z,1.60
2019-03-17T03:48:08.246Z,1.90
2019-03-17T03:50:37.279Z,1.17
2019-03-17T03:53:06.342Z,1.33
2019-03-17T03:55:36.033Z,1.50
2019-03-17T03:58:05.089Z,1.40
2019-03-17T04:00:34.043Z,1.30
2019-03-17T04:03:02.897Z,1.33
2019-03-17T04:05:33.824Z,1.70
2019-03-17T04:08:02.671Z,1.33
2019-03-17T04:10:31.630Z,1.30
2019-03-17T04:13:01.009Z,1.83
2019-03-17T04:15:29.986Z,1.50
2019-03-17T04:17:59.343Z,1.43
2019-03-17T04:20:28.236Z,1.60
2019-03-17T04:22:57.209Z,1.70
2019-03-17T04:25:26.138Z,1.43
2019-03-17T04:27:55.065Z,1.43
2019-03-17T04:30:24.101Z,1.70
2019-03-17T04:32:53.832Z,1.07
2019-03-17T04:35:22.781Z,1.77
2019-03-17T04:37:52.070Z,1.70
2019-03-17T04:40:20.925Z,1.40
2019-03-17T04:42:49.856Z,1.57
2019-03-17T04:45:18.806Z,1.70
2019-03-17T04:47:47.668Z,1.23
2019-03-17T04:50:16.538Z,1.60
2019-03-17T04:53:01.879Z,1.70
2019-03-17T04:55:31.171Z,1.37
2019-03-17T04:58:00.075Z,1.60
2019-03-17T05:00:29.002Z,1.80
2019-03-17T05:02:57.938Z,1.50
2019-03-17T05:05:27.096Z,1.43
2019-03-17T05:07:55.958Z,1.60
2019-03-17T05:10:24.811Z,1.50
2019-03-17T05:12:53.946Z,1.40
2019-03-17T05:15:23.153Z,1.70
2019-03-17T05:17:52.553Z,1.50
2019-03-17T05:20:21.409Z,1.60
2019-03-17T05:22:50.259Z,1.47
2019-03-17T05:25:19.221Z,1.37
2019-03-17T05:27:48.462Z,1.70
2019-03-17T05:30:17.322Z,1.20
2019-03-17T05:32:46.257Z,1.50
2019-03-17T05:35:15.106Z,1.57
2019-03-17T05:37:43.965Z,1.70
2019-03-17T05:40:12.957Z,1.60
2019-03-17T05:42:42.239Z,1.73
2019-03-17T05:45:11.149Z,1.47
2019-03-17T05:47:40.005Z,1.40
2019-03-17T05:50:09.082Z,1.60
2019-03-17T05:52:38.277Z,1.60
2019-03-17T05:55:07.561Z,1.40
2019-03-17T05:57:36.497Z,1.80
2019-03-17T06:00:06.427Z,1.50
2019-03-17T06:02:35.379Z,1.63
2019-03-17T06:05:04.759Z,1.70
2019-03-17T06:07:33.614Z,1.50
2019-03-17T06:10:02.852Z,1.53
2019-03-17T06:12:31.792Z,1.57
2019-03-17T06:15:00.645Z,1.70
2019-03-17T06:17:29.933Z,1.53
2019-03-17T06:19:58.766Z,1.43
2019-03-17T06:22:27.627Z,1.67
2019-03-17T06:24:56.462Z,1.80
2019-03-17T06:27:25.365Z,1.67
2019-03-17T06:29:54.223Z,1.67
2019-03-17T06:32:23.386Z,1.70
2019-03-17T06:34:52.255Z,1.60
2019-03-17T06:37:30.568Z,1.77
2019-03-17T06:39:52.391Z,1.83
2019-03-17T06:42:21.622Z,1.80
2019-03-17T06:44:50.743Z,1.80
2019-03-17T06:47:20.006Z,1.40
2019-03-17T06:49:49.221Z,1.60
2019-03-17T06:52:18.137Z,1.63
2019-03-17T06:54:47.057Z,1.60
2019-03-17T06:57:15.910Z,1.40
2019-03-17T06:59:45.077Z,1.60
2019-03-17T07:02:14.014Z,1.50
2019-03-17T07:04:43.220Z,1.77
2019-03-17T07:07:12.364Z,1.60
2019-03-17T07:09:41.205Z,1.73
2019-03-17T07:12:10.375Z,1.50
2019-03-17T07:14:39.225Z,1.40
2019-03-17T07:17:11.225Z,1.73
2019-03-17T07:22:56.227Z,1.70
2019-03-17T07:25:25.399Z,1.60
2019-03-17T07:27:54.595Z,1.60
2019-03-17T07:30:23.442Z,1.60
2019-03-17T07:32:52.373Z,1.40
2019-03-17T07:35:21.291Z,1.40
2019-03-17T07:37:56.671Z,1.53
2019-03-17T07:40:22.118Z,1.47
2019-03-17T07:42:50.984Z,1.50
2019-03-17T07:45:19.904Z,1.70
2019-03-17T07:47:49.098Z,1.90
2019-03-17T07:50:18.044Z,1.70
2019-03-17T07:52:47.219Z,1.93
2019-03-17T07:55:16.063Z,2.07
2019-03-17T07:57:48.089Z,1.80
2019-03-17T08:00:17.383Z,1.80
2019-03-17T08:02:46.317Z,1.67
2019-03-17T08:05:15.237Z,2.03
2019-03-17T08:07:44.169Z,2.27
2019-03-17T08:10:13.534Z,2.37
2019-03-17T08:12:42.449Z,2.00
2019-03-17T08:15:11.714Z,1.97
2019-03-17T08:17:40.725Z,1.80
2019-03-17T08:20:10.153Z,2.73
2019-03-17T08:22:39.307Z,2.27
2019-03-17T08:25:09.115Z,2.33
2019-03-17T08:27:38.053Z,2.13
2019-03-17T08:30:08.368Z,2.10
2019-03-17T08:32:37.746Z,1.90
2019-03-17T08:35:07.103Z,2.43
2019-03-17T08:37:39.222Z,2.00
2019-03-17T08:40:10.420Z,2.27
2019-03-17T08:42:39.622Z,2.40
2019-03-17T08:45:10.045Z,2.13
2019-03-17T08:47:39.032Z,1.83
2019-03-17T08:50:12.012Z,2.10
2019-03-17T08:52:41.047Z,2.00
2019-03-17T08:55:10.007Z,1.90
2019-03-17T08:57:38.980Z,2.33
2019-03-17T09:00:09.722Z,2.47
2019-03-17T09:02:38.697Z,2.17
2019-03-17T09:05:07.807Z,2.33
2019-03-17T09:07:37.084Z,2.00
2019-03-17T09:10:07.116Z,2.20
2019-03-17T09:12:36.067Z,2.23
2019-03-17T09:15:05.474Z,2.47
2019-03-17T09:17:34.679Z,4.03
2019-03-17T09:20:04.243Z,2.57
2019-03-17T09:22:33.126Z,3.40
2019-03-17T09:25:02.709Z,2.93
2019-03-17T09:27:31.746Z,2.40
2019-03-17T09:30:01.396Z,2.50
2019-03-17T09:32:36.438Z,2.80
2019-03-17T09:35:06.400Z,2.30
2019-03-17T09:37:35.634Z,3.07
2019-03-17T09:40:05.546Z,2.20
2019-03-17T09:42:34.526Z,3.07
2019-03-17T09:45:03.994Z,2.27
2019-03-17T09:47:32.994Z,2.50
2019-03-17T09:50:02.268Z,3.03
2019-03-17T09:52:31.539Z,2.43
2019-03-17T09:55:00.746Z,2.33
2019-03-17T09:57:29.670Z,2.90
2019-03-17T09:59:58.881Z,2.97
2019-03-17T10:02:27.815Z,2.90
2019-03-17T10:04:56.677Z,2.53
2019-03-17T10:07:25.913Z,3.10
2019-03-17T10:09:55.057Z,2.83
2019-03-17T10:12:24.377Z,2.70
2019-03-17T10:14:53.602Z,2.60
2019-03-17T10:17:22.447Z,3.20
2019-03-17T10:19:51.590Z,3.40
2019-03-17T10:25:09.629Z,3.23
2019-03-17T10:27:39.004Z,3.13
2019-03-17T10:30:09.366Z,3.07
2019-03-17T10:32:38.208Z,3.20
2019-03-17T10:35:07.271Z,2.70
2019-03-17T10:37:36.464Z,3.00
2019-03-17T10:40:06.913Z,2.73
2019-03-17T10:42:36.148Z,2.90
2019-03-17T10:45:06.016Z,2.73
2019-03-17T10:47:34.857Z,2.83
2019-03-17T10:50:22.918Z,2.50
2019-03-17T10:52:52.030Z,2.83
2019-03-17T10:55:20.905Z,2.90
2019-03-17T10:57:49.836Z,2.70
2019-03-17T11:00:18.977Z,3.50
2019-03-17T11:02:47.909Z,3.00
2019-03-17T11:05:17.277Z,2.93
2019-03-17T11:07:46.214Z,2.87
2019-03-17T11:10:15.593Z,2.70
2019-03-17T11:12:44.591Z,3.00
2019-03-17T11:15:14.073Z,4.63
2019-03-17T11:17:43.057Z,2.90
2019-03-17T11:20:12.609Z,3.00
2019-03-17T11:22:42.003Z,2.70
2019-03-17T11:25:11.030Z,2.90
2019-03-17T11:27:40.293Z,2.40
2019-03-17T11:30:10.586Z,2.70
2019-03-17T11:32:39.450Z,2.47
2019-03-17T11:35:08.488Z,2.30
2019-03-17T11:37:37.802Z,2.57
2019-03-17T11:40:07.622Z,2.40
2019-03-17T11:42:36.566Z,2.90
2019-03-17T11:45:08.226Z,2.93
2019-03-17T11:47:38.678Z,2.30
2019-03-17T11:50:11.544Z,2.67
2019-03-17T11:52:40.587Z,3.13
2019-03-17T11:55:09.643Z,2.53
2019-03-17T11:57:38.766Z,2.43
2019-03-17T12:00:09.269Z,2.80
2019-03-17T12:02:38.494Z,2.83
2019-03-17T12:05:08.330Z,2.83
2019-03-17T12:07:37.692Z,2.17
2019-03-17T12:10:08.246Z,2.70
2019-03-17T12:12:37.201Z,2.50
2019-03-17T12:15:06.910Z,2.47
2019-03-17T12:17:35.790Z,2.50
2019-03-17T12:20:06.245Z,2.40
2019-03-17T12:22:36.070Z,2.20
2019-03-17T12:25:05.547Z,2.33
2019-03-17T12:27:34.518Z,2.10
2019-03-17T12:30:03.698Z,2.33
2019-03-17T12:32:33.279Z,2.20
2019-03-17T12:35:02.782Z,2.10
2019-03-17T12:37:31.666Z,2.27
2019-03-17T12:40:02.749Z,2.00
2019-03-17T12:42:31.478Z,1.90
2019-03-17T12:45:00.399Z,1.90
2019-03-17T12:47:29.593Z,1.93
2019-03-17T12:49:58.854Z,1.73
2019-03-17T12:52:27.842Z,2.93
2019-03-17T12:54:56.982Z,2.67
2019-03-17T12:57:26.177Z,2.00
2019-03-17T12:59:55.379Z,1.67
2019-03-17T13:02:24.237Z,1.83
2019-03-17T13:04:53.166Z,2.23
2019-03-17T13:07:22.355Z,2.00
2019-03-17T13:09:51.862Z,2.10
2019-03-17T13:12:20.731Z,2.50
2019-03-17T13:14:49.900Z,2.10
2019-03-17T13:17:18.776Z,2.43
2019-03-17T13:19:47.681Z,2.10
2019-03-17T13:22:16.548Z,1.93
2019-03-17T13:24:45.779Z,1.90
2019-03-17T13:27:34.122Z,1.90
2019-03-17T13:30:03.088Z,2.03
2019-03-17T13:32:32.362Z,1.87
2019-03-17T13:35:01.320Z,1.70
2019-03-17T13:37:30.256Z,2.13
2019-03-17T13:39:59.111Z,2.07
2019-03-17T13:42:28.703Z,2.20
2019-03-17T13:44:57.563Z,2.00
2019-03-17T13:47:26.434Z,1.70
2019-03-17T13:49:55.657Z,1.80
2019-03-17T13:52:25.230Z,2.60
2019-03-17T13:54:54.539Z,2.53
2019-03-17T13:57:23.830Z,0.70
2019-03-17T13:59:52.682Z,0.70
2019-03-17T14:02:21.539Z,0.80
2019-03-17T14:04:50.392Z,0.73
2019-03-17T14:07:19.289Z,0.90
2019-03-17T14:09:48.491Z,0.90
2019-03-17T14:12:17.798Z,0.80
2019-03-17T14:14:47.137Z,0.90
2019-03-17T14:17:16.123Z,0.90
2019-03-17T14:19:45.391Z,0.80
2019-03-17T14:22:14.301Z,0.70
2019-03-17T14:24:43.157Z,0.70
2019-03-17T14:27:12.373Z,0.73
2019-03-17T14:29:41.874Z,3.90
2019-03-17T14:32:10.811Z,0.80
2019-03-17T14:34:40.087Z,0.93
2019-03-17T14:37:09.022Z,0.70
2019-03-17T14:39:38.229Z,0.90
2019-03-17T14:42:07.144Z,0.80
2019-03-17T14:44:36.406Z,0.83
2019-03-17T14:47:05.603Z,0.87
2019-03-17T14:49:34.461Z,4.63
2019-03-17T14:52:03.337Z,4.67
2019-03-17T14:54:33.242Z,1.33
2019-03-17T14:57:02.750Z,4.93
2019-03-17T14:59:31.678Z,5.07
2019-03-17T15:02:00.520Z,4.23
2019-03-17T15:04:29.777Z,2.20
2019-03-17T15:06:58.777Z,1.00
2019-03-17T15:09:30.273Z,1.47
2019-03-17T15:11:59.199Z,1.77
2019-03-17T15:14:28.367Z,1.40
2019-03-17T15:16:57.562Z,1.90
2019-03-17T15:19:26.440Z,2.07
2019-03-17T15:21:55.337Z,0.90
2019-03-17T15:24:24.239Z,1.60
2019-03-17T15:26:53.460Z,1.13
2019-03-17T15:29:22.334Z,1.00
2019-03-17T15:31:51.522Z,0.90
2019-03-17T15:34:20.384Z,1.00
2019-03-17T15:36:49.243Z,1.20
2019-03-17T15:39:18.182Z,3.40
2019-03-17T15:41:47.408Z,2.00
2019-03-17T15:44:17.263Z,2.73
2019-03-17T15:46:46.121Z,1.83
2019-03-17T15:49:15.398Z,2.10
2019-03-17T15:51:44.252Z,0.97
2019-03-17T15:54:13.222Z,2.43
2019-03-17T15:56:42.243Z,2.13
2019-03-17T15:59:11.577Z,1.53
2019-03-17T16:01:40.422Z,2.10
2019-03-17T16:04:09.675Z,1.77
2019-03-17T16:06:38.582Z,1.90
2019-03-17T16:09:09.602Z,2.40
2019-03-17T16:11:38.539Z,0.93
2019-03-17T16:14:07.794Z,1.07
2019-03-17T16:16:36.650Z,1.70
2019-03-17T16:19:05.589Z,1.50
2019-03-17T16:21:34.874Z,2.03
2019-03-17T16:24:04.170Z,3.30
2019-03-17T16:26:33.688Z,1.50
2019-03-17T16:29:02.995Z,2.50
2019-03-17T16:31:32.383Z,2.00
2019-03-17T16:34:01.696Z,5.50
2019-03-17T16:36:30.891Z,4.03
2019-03-17T16:38:59.734Z,1.50
2019-03-17T16:41:29.094Z,2.70
2019-03-17T16:43:57.942Z,5.80
2019-03-17T16:46:26.902Z,2.10
2019-03-17T16:48:55.844Z,1.00
2019-03-17T16:51:25.462Z,0.90
2019-03-17T16:53:54.390Z,0.80
2019-03-17T16:56:23.550Z,0.80
2019-03-17T16:58:52.393Z,0.90
2019-03-17T17:01:21.253Z,1.10
2019-03-17T17:03:50.270Z,1.03
2019-03-17T17:06:19.626Z,0.80
2019-03-17T17:08:49.231Z,0.80
2019-03-17T17:11:18.561Z,1.07
2019-03-17T17:13:47.480Z,1.20
2019-03-17T17:16:16.395Z,1.17
2019-03-17T17:18:45.617Z,1.20
2019-03-17T17:21:14.874Z,1.20
2019-03-17T17:23:43.834Z,0.90
2019-03-17T17:26:13.110Z,0.90
2019-03-17T17:28:42.302Z,1.00
2019-03-17T17:31:11.304Z,1.00
2019-03-17T17:33:40.294Z,0.90
2019-03-17T17:36:11.144Z,1.10
2019-03-17T17:38:40.167Z,1.00
2019-03-17T17:41:31.511Z,1.10
2019-03-17T17:44:00.365Z,1.27
2019-03-17T17:46:29.256Z,1.07
2019-03-17T17:48:58.097Z,1.00
2019-03-17T17:51:27.315Z,1.07
2019-03-17T17:53:56.440Z,1.10
2019-03-17T17:56:25.710Z,1.70
2019-03-17T17:58:54.911Z,1.20
2019-03-17T18:01:43.330Z,1.77
2019-03-17T18:04:12.290Z,1.00
2019-03-17T18:06:41.710Z,0.90
2019-03-17T18:09:10.677Z,1.10
2019-03-17T18:11:41.151Z,1.10
2019-03-17T18:14:10.844Z,1.00
2019-03-17T18:19:28.437Z,1.10
2019-03-17T18:21:57.369Z,1.10
2019-03-17T18:24:26.423Z,1.20
2019-03-17T18:26:55.718Z,1.10
2019-03-17T18:29:24.925Z,1.10
2019-03-17T18:31:53.919Z,1.60
2019-03-17T18:34:23.475Z,1.10
2019-03-17T18:36:52.728Z,1.00
2019-03-17T18:42:11.977Z,1.00
2019-03-17T18:44:40.822Z,1.00
2019-03-17T18:47:09.696Z,1.00
2019-03-17T18:49:40.110Z,1.10
2019-03-17T18:52:09.030Z,1.00
2019-03-17T18:54:37.938Z,1.13
2019-03-17T18:57:07.265Z,1.83
2019-03-17T18:59:36.275Z,2.07
2019-03-17T19:02:05.397Z,6.20
2019-03-17T19:04:34.584Z,6.00
2019-03-17T19:07:03.889Z,3.27
2019-03-17T19:09:33.076Z,8.40
2019-03-17T19:12:02.588Z,2.53
2019-03-17T19:14:31.453Z,2.20
2019-03-17T19:17:00.785Z,2.83
2019-03-17T19:19:30.054Z,1.77
2019-03-17T19:21:59.582Z,1.10
2019-03-17T19:24:28.437Z,5.90
2019-03-17T19:26:57.876Z,3.80
2019-03-17T19:29:26.771Z,1.80
2019-03-17T19:31:56.067Z,1.20
2019-03-17T19:34:25.603Z,2.37
2019-03-17T19:36:54.558Z,2.40
2019-03-17T19:39:23.545Z,2.13
2019-03-17T19:41:52.853Z,1.40
2019-03-17T19:44:21.948Z,1.27
2019-03-17T19:46:50.787Z,1.03
2019-03-17T19:49:20.006Z,2.53
2019-03-17T19:51:48.875Z,1.60
2019-03-17T19:54:17.800Z,1.60
2019-03-17T19:56:46.783Z,1.40
2019-03-17T19:59:15.681Z,1.50
2019-03-17T20:01:44.533Z,1.53
2019-03-17T20:04:15.138Z,1.10
2019-03-17T20:06:44.273Z,1.40
2019-03-17T20:09:13.198Z,1.30
2019-03-17T20:11:44.762Z,1.30
2019-03-17T20:14:33.431Z,1.10
2019-03-17T20:17:02.309Z,1.10
2019-03-17T20:19:32.779Z,1.40
2019-03-17T20:22:02.099Z,1.40
2019-03-17T20:24:33.138Z,1.40
2019-03-17T20:27:02.115Z,1.17
2019-03-17T20:29:31.047Z,1.13
2019-03-17T20:32:00.177Z,1.43
2019-03-17T20:34:29.067Z,1.23
2019-03-17T20:36:57.906Z,1.10
2019-03-17T20:39:46.322Z,1.20
2019-03-17T20:42:16.792Z,0.93
2019-03-17T20:44:45.645Z,1.20
2019-03-17T20:47:14.786Z,0.97
2019-03-17T20:49:44.008Z,1.00
2019-03-17T20:52:13.211Z,1.33
2019-03-17T20:54:42.074Z,1.30
2019-03-17T20:57:11.256Z,1.33
2019-03-17T20:59:40.213Z,1.30
2019-03-17T21:02:09.763Z,1.30
2019-03-17T21:04:39.006Z,1.27
2019-03-17T21:07:08.617Z,1.40
2019-03-17T21:09:37.478Z,1.40
2019-03-17T21:12:06.654Z,1.17
2019-03-17T21:14:35.854Z,1.33
2019-03-17T21:17:04.934Z,2.03
2019-03-17T21:19:33.802Z,2.10
2019-03-17T21:22:03.346Z,2.57
2019-03-17T21:24:32.563Z,1.67
2019-03-17T21:27:01.747Z,1.60
2019-03-17T21:29:30.887Z,2.17
2019-03-17T21:31:59.740Z,2.10
2019-03-17T21:34:28.897Z,1.73
2019-03-17T21:36:58.046Z,2.10
2019-03-17T21:39:27.243Z,1.50
2019-03-17T21:41:56.145Z,1.50
2019-03-17T21:44:25.726Z,1.50
2019-03-17T21:46:55.053Z,1.23
2019-03-17T21:49:27.091Z,1.50
2019-03-17T21:51:55.916Z,1.20
2019-03-17T21:54:24.782Z,1.20
2019-03-17T21:56:54.074Z,1.00
2019-03-17T21:59:35.356Z,1.00
2019-03-17T22:02:12.981Z,1.40
2019-03-17T22:04:35.165Z,1.63
2019-03-17T22:07:04.254Z,1.10
2019-03-17T22:09:33.289Z,1.20
2019-03-17T22:12:02.463Z,1.13
2019-03-17T22:14:31.659Z,1.40
2019-03-17T22:17:00.498Z,1.27
2019-03-17T22:19:29.362Z,1.50
2019-03-17T22:21:58.267Z,1.10
2019-03-17T22:24:27.154Z,1.20
2019-03-17T22:26:56.331Z,1.00
2019-03-17T22:29:25.540Z,1.00
2019-03-17T22:31:54.518Z,1.00
2019-03-17T22:34:23.417Z,1.03
2019-03-17T22:36:52.814Z,1.10
2019-03-17T22:39:21.666Z,0.90
2019-03-17T22:41:50.507Z,1.30
2019-03-17T22:44:24.334Z,1.00
2019-03-17T22:46:49.930Z,1.00
2019-03-17T22:49:18.849Z,1.13
2019-03-17T22:51:47.768Z,1.20
2019-03-17T22:54:16.629Z,1.00
2019-03-17T22:56:45.797Z,0.80
2019-03-17T22:59:14.653Z,1.20
2019-03-17T23:01:43.577Z,1.27
2019-03-17T23:04:12.494Z,1.60
2019-03-17T23:06:41.488Z,1.33
2019-03-17T23:09:10.479Z,1.27
2019-03-17T23:11:39.604Z,1.03
2019-03-17T23:14:08.547Z,1.30
2019-03-17T23:16:37.480Z,1.20
2019-03-17T23:19:06.945Z,2.30
2019-03-17T23:21:35.821Z,1.00
2019-03-17T23:24:04.826Z,1.20
2019-03-17T23:26:34.054Z,1.10
2019-03-17T23:29:02.927Z,1.50
2019-03-17T23:31:31.857Z,1.37
2019-03-17T23:34:00.699Z,1.70
2019-03-17T23:36:29.818Z,1.60
2019-03-17T23:38:58.974Z,1.20
2019-03-17T23:41:28.233Z,1.70
2019-03-17T23:43:57.474Z,1.80
2019-03-17T23:46:26.334Z,1.73
2019-03-17T23:48:55.174Z,1.77
2019-03-17T23:51:24.125Z,1.30
2019-03-17T23:53:52.968Z,1.53
2019-03-17T23:56:21.826Z,1.17
2019-03-17T23:58:51.029Z,1.40
